sensor_id;sensor_type;location;lat;lon;timestamp;P1;durP1;ratioP1;P2;durP2;ratioP2
11054;SDS011;5580;50.106;8.702;2023-03-19T00:01:10;25.40;;;15.47;;
11054;SDS011;5580;50.106;8.702;2023-03-19T00:03:36;27.67;;;17.00;;
11054;SDS011;5580;50.106;8.702;2023-03-19T00:06:01;27.17;;;16.33;;
11054;SDS011;5580;50.106;8.702;2023-03-19T00:08:27;27.30;;;16.93;;
11054;SDS011;5580;50.106;8.702;2023-03-19T00:10:53;29.07;;;16.20;;
11054;SDS011;5580;50.106;8.702;2023-03-19T00:13:18;25.87;;;15.90;;
11054;SDS011;5580;50.106;8.702;2023-03-19T00:15:45;26.77;;;16.60;;
11054;SDS011;5580;50.106;8.702;2023-03-19T00:18:11;29.07;;;17.17;;
11054;SDS011;5580;50.106;8.702;2023-03-19T00:20:37;26.00;;;16.47;;
11054;SDS011;5580;50.106;8.702;2023-03-19T00:23:03;30.80;;;17.47;;
11054;SDS011;5580;50.106;8.702;2023-03-19T00:25:28;26.10;;;17.17;;
11054;SDS011;5580;50.106;8.702;2023-03-19T00:27:54;27.13;;;17.00;;
11054;SDS011;5580;50.106;8.702;2023-03-19T00:30:20;27.73;;;16.57;;
11054;SDS011;5580;50.106;8.702;2023-03-19T00:32:46;26.80;;;16.60;;
11054;SDS011;5580;50.106;8.702;2023-03-19T00:35:12;32.07;;;17.47;;
11054;SDS011;5580;50.106;8.702;2023-03-19T00:37:38;33.43;;;16.73;;
11054;SDS011;5580;50.106;8.702;2023-03-19T00:40:06;30.03;;;17.40;;
11054;SDS011;5580;50.106;8.702;2023-03-19T00:42:32;27.97;;;17.20;;
11054;SDS011;5580;50.106;8.702;2023-03-19T00:44:58;27.90;;;16.80;;
11054;SDS011;5580;50.106;8.702;2023-03-19T00:47:24;24.73;;;16.60;;
11054;SDS011;5580;50.106;8.702;2023-03-19T00:49:49;24.53;;;16.47;;
11054;SDS011;5580;50.106;8.702;2023-03-19T00:52:15;26.00;;;16.53;;
11054;SDS011;5580;50.106;8.702;2023-03-19T00:54:41;26.87;;;17.17;;
11054;SDS011;5580;50.106;8.702;2023-03-19T00:57:06;24.77;;;16.00;;
11054;SDS011;5580;50.106;8.702;2023-03-19T00:59:32;27.97;;;17.23;;
11054;SDS011;5580;50.106;8.702;2023-03-19T01:01:58;28.00;;;17.37;;
11054;SDS011;5580;50.106;8.702;2023-03-19T01:04:24;25.77;;;16.40;;
11054;SDS011;5580;50.106;8.702;2023-03-19T01:06:49;28.00;;;17.13;;
11054;SDS011;5580;50.106;8.702;2023-03-19T01:09:15;24.63;;;16.70;;
11054;SDS011;5580;50.106;8.702;2023-03-19T01:11:41;25.57;;;16.17;;
11054;SDS011;5580;50.106;8.702;2023-03-19T01:14:07;27.07;;;16.37;;
11054;SDS011;5580;50.106;8.702;2023-03-19T01:16:32;27.53;;;16.60;;
11054;SDS011;5580;50.106;8.702;2023-03-19T01:18:59;23.83;;;15.70;;
11054;SDS011;5580;50.106;8.702;2023-03-19T01:21:25;28.03;;;15.40;;
11054;SDS011;5580;50.106;8.702;2023-03-19T01:23:51;22.13;;;14.60;;
11054;SDS011;5580;50.106;8.702;2023-03-19T01:26:17;20.23;;;11.70;;
11054;SDS011;5580;50.106;8.702;2023-03-19T01:28:43;18.60;;;12.13;;
11054;SDS011;5580;50.106;8.702;2023-03-19T01:31:09;19.63;;;11.97;;
11054;SDS011;5580;50.106;8.702;2023-03-19T01:33:35;14.20;;;8.77;;
11054;SDS011;5580;50.106;8.702;2023-03-19T01:36:01;16.57;;;8.97;;
11054;SDS011;5580;50.106;8.702;2023-03-19T01:38:28;14.73;;;8.90;;
11054;SDS011;5580;50.106;8.702;2023-03-19T01:40:54;18.03;;;8.47;;
11054;SDS011;5580;50.106;8.702;2023-03-19T01:43:21;15.87;;;8.67;;
11054;SDS011;5580;50.106;8.702;2023-03-19T01:45:49;18.10;;;9.27;;
11054;SDS011;5580;50.106;8.702;2023-03-19T01:50:48;15.27;;;9.10;;
11054;SDS011;5580;50.106;8.702;2023-03-19T01:53:15;13.63;;;8.40;;
11054;SDS011;5580;50.106;8.702;2023-03-19T01:55:42;15.80;;;8.90;;
11054;SDS011;5580;50.106;8.702;2023-03-19T01:58:10;16.00;;;8.70;;
11054;SDS011;5580;50.106;8.702;2023-03-19T02:00:36;15.60;;;8.87;;
11054;SDS011;5580;50.106;8.702;2023-03-19T02:03:03;15.70;;;9.07;;
11054;SDS011;5580;50.106;8.702;2023-03-19T02:05:29;17.27;;;8.70;;
11054;SDS011;5580;50.106;8.702;2023-03-19T02:07:56;16.00;;;9.07;;
11054;SDS011;5580;50.106;8.702;2023-03-19T02:10:25;17.03;;;9.17;;
11054;SDS011;5580;50.106;8.702;2023-03-19T02:12:52;14.83;;;8.80;;
11054;SDS011;5580;50.106;8.702;2023-03-19T02:15:18;16.00;;;8.83;;
11054;SDS011;5580;50.106;8.702;2023-03-19T02:17:43;14.67;;;9.00;;
11054;SDS011;5580;50.106;8.702;2023-03-19T02:20:16;15.30;;;8.97;;
11054;SDS011;5580;50.106;8.702;2023-03-19T02:22:45;16.17;;;9.50;;
11054;SDS011;5580;50.106;8.702;2023-03-19T02:25:25;13.77;;;9.00;;
11054;SDS011;5580;50.106;8.702;2023-03-19T02:27:56;16.67;;;8.97;;
11054;SDS011;5580;50.106;8.702;2023-03-19T02:30:26;16.73;;;8.87;;
11054;SDS011;5580;50.106;8.702;2023-03-19T02:32:55;15.67;;;8.77;;
11054;SDS011;5580;50.106;8.702;2023-03-19T02:35:20;15.27;;;9.00;;
11054;SDS011;5580;50.106;8.702;2023-03-19T02:37:46;15.50;;;8.87;;
11054;SDS011;5580;50.106;8.702;2023-03-19T02:40:19;14.93;;;8.87;;
11054;SDS011;5580;50.106;8.702;2023-03-19T02:42:48;15.47;;;9.17;;
11054;SDS011;5580;50.106;8.702;2023-03-19T02:45:14;15.77;;;8.90;;
11054;SDS011;5580;50.106;8.702;2023-03-19T02:47:40;14.50;;;8.57;;
11054;SDS011;5580;50.106;8.702;2023-03-19T02:50:06;15.67;;;8.80;;
11054;SDS011;5580;50.106;8.702;2023-03-19T02:52:33;17.00;;;9.07;;
11054;SDS011;5580;50.106;8.702;2023-03-19T02:54:59;16.23;;;9.77;;
11054;SDS011;5580;50.106;8.702;2023-03-19T02:57:24;16.80;;;9.10;;
11054;SDS011;5580;50.106;8.702;2023-03-19T02:59:50;16.20;;;9.63;;
11054;SDS011;5580;50.106;8.702;2023-03-19T03:02:16;15.50;;;9.10;;
11054;SDS011;5580;50.106;8.702;2023-03-19T03:04:41;15.47;;;9.23;;
11054;SDS011;5580;50.106;8.702;2023-03-19T03:07:07;15.67;;;9.13;;
11054;SDS011;5580;50.106;8.702;2023-03-19T03:09:33;14.33;;;9.20;;
11054;SDS011;5580;50.106;8.702;2023-03-19T03:11:58;15.93;;;9.17;;
11054;SDS011;5580;50.106;8.702;2023-03-19T03:14:24;16.57;;;9.17;;
11054;SDS011;5580;50.106;8.702;2023-03-19T03:16:50;16.03;;;9.10;;
11054;SDS011;5580;50.106;8.702;2023-03-19T03:19:16;16.40;;;9.23;;
11054;SDS011;5580;50.106;8.702;2023-03-19T03:21:42;16.47;;;9.40;;
11054;SDS011;5580;50.106;8.702;2023-03-19T03:24:07;15.40;;;9.07;;
11054;SDS011;5580;50.106;8.702;2023-03-19T03:26:33;12.93;;;8.40;;
11054;SDS011;5580;50.106;8.702;2023-03-19T03:29:02;14.10;;;8.63;;
11054;SDS011;5580;50.106;8.702;2023-03-19T03:31:29;16.97;;;8.87;;
11054;SDS011;5580;50.106;8.702;2023-03-19T03:33:54;14.63;;;8.53;;
11054;SDS011;5580;50.106;8.702;2023-03-19T03:36:20;15.70;;;8.60;;
11054;SDS011;5580;50.106;8.702;2023-03-19T03:38:46;15.60;;;9.03;;
11054;SDS011;5580;50.106;8.702;2023-03-19T03:41:12;15.23;;;8.73;;
11054;SDS011;5580;50.106;8.702;2023-03-19T03:43:37;16.60;;;9.37;;
11054;SDS011;5580;50.106;8.702;2023-03-19T03:46:03;13.70;;;8.37;;
11054;SDS011;5580;50.106;8.702;2023-03-19T03:48:29;15.97;;;9.07;;
11054;SDS011;5580;50.106;8.702;2023-03-19T03:50:55;21.67;;;9.80;;
11054;SDS011;5580;50.106;8.702;2023-03-19T03:53:20;14.27;;;8.80;;
11054;SDS011;5580;50.106;8.702;2023-03-19T03:55:46;20.53;;;10.20;;
11054;SDS011;5580;50.106;8.702;2023-03-19T03:58:11;16.47;;;10.00;;
11054;SDS011;5580;50.106;8.702;2023-03-19T04:00:37;17.17;;;9.80;;
11054;SDS011;5580;50.106;8.702;2023-03-19T04:03:03;14.73;;;9.60;;
11054;SDS011;5580;50.106;8.702;2023-03-19T04:05:29;16.20;;;9.43;;
11054;SDS011;5580;50.106;8.702;2023-03-19T04:07:54;19.80;;;10.10;;
11054;SDS011;5580;50.106;8.702;2023-03-19T04:10:21;19.03;;;9.83;;
11054;SDS011;5580;50.106;8.702;2023-03-19T04:12:47;16.10;;;9.80;;
11054;SDS011;5580;50.106;8.702;2023-03-19T04:15:13;17.60;;;9.40;;
11054;SDS011;5580;50.106;8.702;2023-03-19T04:17:39;17.47;;;9.40;;
11054;SDS011;5580;50.106;8.702;2023-03-19T04:20:05;15.90;;;9.30;;
11054;SDS011;5580;50.106;8.702;2023-03-19T04:22:32;13.93;;;9.00;;
11054;SDS011;5580;50.106;8.702;2023-03-19T04:24:57;13.90;;;8.93;;
11054;SDS011;5580;50.106;8.702;2023-03-19T04:27:23;16.30;;;9.50;;
11054;SDS011;5580;50.106;8.702;2023-03-19T04:29:49;16.50;;;9.50;;
11054;SDS011;5580;50.106;8.702;2023-03-19T04:32:15;18.60;;;10.33;;
11054;SDS011;5580;50.106;8.702;2023-03-19T04:34:40;15.63;;;9.43;;
11054;SDS011;5580;50.106;8.702;2023-03-19T04:37:06;19.83;;;9.67;;
11054;SDS011;5580;50.106;8.702;2023-03-19T04:39:34;15.53;;;9.13;;
11054;SDS011;5580;50.106;8.702;2023-03-19T04:42:00;18.20;;;10.00;;
11054;SDS011;5580;50.106;8.702;2023-03-19T04:44:26;17.07;;;9.67;;
11054;SDS011;5580;50.106;8.702;2023-03-19T04:46:51;16.67;;;9.30;;
11054;SDS011;5580;50.106;8.702;2023-03-19T04:49:17;15.17;;;9.77;;
11054;SDS011;5580;50.106;8.702;2023-03-19T04:51:43;16.13;;;9.60;;
11054;SDS011;5580;50.106;8.702;2023-03-19T04:54:09;16.27;;;9.50;;
11054;SDS011;5580;50.106;8.702;2023-03-19T04:56:34;16.40;;;9.23;;
11054;SDS011;5580;50.106;8.702;2023-03-19T04:59:00;14.63;;;9.43;;
11054;SDS011;5580;50.106;8.702;2023-03-19T05:01:26;15.83;;;9.70;;
11054;SDS011;5580;50.106;8.702;2023-03-19T05:03:51;17.60;;;10.00;;
11054;SDS011;5580;50.106;8.702;2023-03-19T05:06:17;17.03;;;9.73;;
11054;SDS011;5580;50.106;8.702;2023-03-19T05:08:44;16.00;;;9.47;;
11054;SDS011;5580;50.106;8.702;2023-03-19T05:11:10;19.37;;;9.73;;
11054;SDS011;5580;50.106;8.702;2023-03-19T05:13:36;14.27;;;9.43;;
11054;SDS011;5580;50.106;8.702;2023-03-19T05:16:02;14.40;;;9.40;;
11054;SDS011;5580;50.106;8.702;2023-03-19T05:18:28;17.00;;;9.67;;
11054;SDS011;5580;50.106;8.702;2023-03-19T05:20:54;16.57;;;9.90;;
11054;SDS011;5580;50.106;8.702;2023-03-19T05:23:19;16.73;;;9.20;;
11054;SDS011;5580;50.106;8.702;2023-03-19T05:25:46;18.17;;;10.33;;
11054;SDS011;5580;50.106;8.702;2023-03-19T05:28:12;16.33;;;9.73;;
11054;SDS011;5580;50.106;8.702;2023-03-19T05:30:38;14.63;;;9.73;;
11054;SDS011;5580;50.106;8.702;2023-03-19T05:33:04;18.27;;;9.80;;
11054;SDS011;5580;50.106;8.702;2023-03-19T05:35:29;17.73;;;9.97;;
11054;SDS011;5580;50.106;8.702;2023-03-19T05:37:55;15.80;;;9.63;;
11054;SDS011;5580;50.106;8.702;2023-03-19T05:40:21;15.53;;;9.67;;
11054;SDS011;5580;50.106;8.702;2023-03-19T05:42:48;17.20;;;10.17;;
11054;SDS011;5580;50.106;8.702;2023-03-19T05:45:14;14.37;;;9.20;;
11054;SDS011;5580;50.106;8.702;2023-03-19T05:47:41;18.37;;;9.40;;
11054;SDS011;5580;50.106;8.702;2023-03-19T05:50:07;17.20;;;9.03;;
11054;SDS011;5580;50.106;8.702;2023-03-19T05:52:33;15.73;;;9.33;;
11054;SDS011;5580;50.106;8.702;2023-03-19T05:54:59;15.37;;;8.70;;
11054;SDS011;5580;50.106;8.702;2023-03-19T05:57:25;14.10;;;9.00;;
11054;SDS011;5580;50.106;8.702;2023-03-19T05:59:51;14.97;;;9.33;;
11054;SDS011;5580;50.106;8.702;2023-03-19T06:02:17;15.57;;;8.87;;
11054;SDS011;5580;50.106;8.702;2023-03-19T06:04:42;13.63;;;8.57;;
11054;SDS011;5580;50.106;8.702;2023-03-19T06:07:08;15.23;;;8.70;;
11054;SDS011;5580;50.106;8.702;2023-03-19T06:09:34;15.17;;;8.07;;
11054;SDS011;5580;50.106;8.702;2023-03-19T06:11:59;15.40;;;8.63;;
11054;SDS011;5580;50.106;8.702;2023-03-19T06:14:25;13.27;;;8.43;;
11054;SDS011;5580;50.106;8.702;2023-03-19T06:16:51;17.27;;;8.77;;
11054;SDS011;5580;50.106;8.702;2023-03-19T06:19:16;15.37;;;8.13;;
11054;SDS011;5580;50.106;8.702;2023-03-19T06:21:42;15.10;;;8.40;;
11054;SDS011;5580;50.106;8.702;2023-03-19T06:24:08;14.93;;;8.23;;
11054;SDS011;5580;50.106;8.702;2023-03-19T06:26:33;15.83;;;8.50;;
11054;SDS011;5580;50.106;8.702;2023-03-19T06:28:59;14.90;;;8.10;;
11054;SDS011;5580;50.106;8.702;2023-03-19T06:31:25;14.83;;;8.37;;
11054;SDS011;5580;50.106;8.702;2023-03-19T06:33:51;14.13;;;8.33;;
11054;SDS011;5580;50.106;8.702;2023-03-19T06:36:18;14.83;;;8.00;;
11054;SDS011;5580;50.106;8.702;2023-03-19T06:38:43;14.80;;;8.90;;
11054;SDS011;5580;50.106;8.702;2023-03-19T06:41:09;14.67;;;8.63;;
11054;SDS011;5580;50.106;8.702;2023-03-19T06:43:34;14.50;;;8.20;;
11054;SDS011;5580;50.106;8.702;2023-03-19T06:46:01;13.17;;;8.70;;
11054;SDS011;5580;50.106;8.702;2023-03-19T06:48:30;13.87;;;8.33;;
11054;SDS011;5580;50.106;8.702;2023-03-19T06:50:57;15.17;;;8.13;;
11054;SDS011;5580;50.106;8.702;2023-03-19T06:53:23;17.07;;;8.97;;
11054;SDS011;5580;50.106;8.702;2023-03-19T06:55:49;13.83;;;7.90;;
11054;SDS011;5580;50.106;8.702;2023-03-19T06:58:14;14.53;;;8.40;;
11054;SDS011;5580;50.106;8.702;2023-03-19T07:00:40;14.97;;;8.53;;
11054;SDS011;5580;50.106;8.702;2023-03-19T07:03:06;14.77;;;9.07;;
11054;SDS011;5580;50.106;8.702;2023-03-19T07:05:31;14.00;;;8.57;;
11054;SDS011;5580;50.106;8.702;2023-03-19T07:07:57;15.03;;;8.77;;
11054;SDS011;5580;50.106;8.702;2023-03-19T07:10:23;13.67;;;8.33;;
11054;SDS011;5580;50.106;8.702;2023-03-19T07:12:48;14.43;;;8.53;;
11054;SDS011;5580;50.106;8.702;2023-03-19T07:15:14;16.47;;;8.60;;
11054;SDS011;5580;50.106;8.702;2023-03-19T07:17:41;13.73;;;8.20;;
11054;SDS011;5580;50.106;8.702;2023-03-19T07:20:09;16.20;;;8.00;;
11054;SDS011;5580;50.106;8.702;2023-03-19T07:22:36;12.80;;;8.07;;
11054;SDS011;5580;50.106;8.702;2023-03-19T07:25:01;13.53;;;8.70;;
11054;SDS011;5580;50.106;8.702;2023-03-19T07:27:27;16.90;;;8.70;;
11054;SDS011;5580;50.106;8.702;2023-03-19T07:29:53;14.83;;;8.20;;
11054;SDS011;5580;50.106;8.702;2023-03-19T07:32:19;14.57;;;8.00;;
11054;SDS011;5580;50.106;8.702;2023-03-19T07:34:46;14.00;;;8.00;;
11054;SDS011;5580;50.106;8.702;2023-03-19T07:37:12;16.17;;;8.70;;
11054;SDS011;5580;50.106;8.702;2023-03-19T07:39:37;15.40;;;9.00;;
11054;SDS011;5580;50.106;8.702;2023-03-19T07:42:03;14.77;;;8.73;;
11054;SDS011;5580;50.106;8.702;2023-03-19T07:44:29;13.30;;;8.30;;
11054;SDS011;5580;50.106;8.702;2023-03-19T07:46:55;12.00;;;7.80;;
11054;SDS011;5580;50.106;8.702;2023-03-19T07:49:21;13.50;;;8.00;;
11054;SDS011;5580;50.106;8.702;2023-03-19T07:51:47;11.90;;;7.33;;
11054;SDS011;5580;50.106;8.702;2023-03-19T07:54:12;14.17;;;8.30;;
11054;SDS011;5580;50.106;8.702;2023-03-19T07:56:38;12.73;;;7.77;;
11054;SDS011;5580;50.106;8.702;2023-03-19T07:59:04;12.73;;;7.57;;
11054;SDS011;5580;50.106;8.702;2023-03-19T08:01:30;13.70;;;7.50;;
11054;SDS011;5580;50.106;8.702;2023-03-19T08:03:56;13.07;;;7.80;;
11054;SDS011;5580;50.106;8.702;2023-03-19T08:06:21;12.87;;;7.23;;
11054;SDS011;5580;50.106;8.702;2023-03-19T08:08:47;11.80;;;7.03;;
11054;SDS011;5580;50.106;8.702;2023-03-19T08:11:13;12.43;;;7.30;;
11054;SDS011;5580;50.106;8.702;2023-03-19T08:13:39;11.23;;;6.97;;
11054;SDS011;5580;50.106;8.702;2023-03-19T08:16:04;12.53;;;7.40;;
11054;SDS011;5580;50.106;8.702;2023-03-19T08:18:30;15.00;;;7.50;;
11054;SDS011;5580;50.106;8.702;2023-03-19T08:20:56;13.93;;;7.20;;
11054;SDS011;5580;50.106;8.702;2023-03-19T08:23:21;14.47;;;7.53;;
11054;SDS011;5580;50.106;8.702;2023-03-19T08:25:47;12.87;;;7.23;;
11054;SDS011;5580;50.106;8.702;2023-03-19T08:28:15;12.13;;;6.60;;
11054;SDS011;5580;50.106;8.702;2023-03-19T08:30:41;11.43;;;7.00;;
11054;SDS011;5580;50.106;8.702;2023-03-19T08:33:06;11.27;;;6.60;;
11054;SDS011;5580;50.106;8.702;2023-03-19T08:35:32;11.23;;;7.10;;
11054;SDS011;5580;50.106;8.702;2023-03-19T08:37:58;13.43;;;6.60;;
11054;SDS011;5580;50.106;8.702;2023-03-19T08:40:24;13.57;;;7.10;;
11054;SDS011;5580;50.106;8.702;2023-03-19T08:42:49;11.73;;;7.00;;
11054;SDS011;5580;50.106;8.702;2023-03-19T08:45:15;12.97;;;6.80;;
11054;SDS011;5580;50.106;8.702;2023-03-19T08:47:41;12.40;;;6.80;;
11054;SDS011;5580;50.106;8.702;2023-03-19T08:50:08;20.43;;;7.50;;
11054;SDS011;5580;50.106;8.702;2023-03-19T08:52:35;11.77;;;6.80;;
11054;SDS011;5580;50.106;8.702;2023-03-19T08:55:00;12.27;;;6.97;;
11054;SDS011;5580;50.106;8.702;2023-03-19T08:57:26;9.87;;;6.40;;
11054;SDS011;5580;50.106;8.702;2023-03-19T08:59:52;14.30;;;6.67;;
11054;SDS011;5580;50.106;8.702;2023-03-19T09:02:18;10.93;;;6.40;;
11054;SDS011;5580;50.106;8.702;2023-03-19T09:04:43;11.13;;;6.40;;
11054;SDS011;5580;50.106;8.702;2023-03-19T09:07:09;10.20;;;6.37;;
11054;SDS011;5580;50.106;8.702;2023-03-19T09:09:37;10.47;;;5.90;;
11054;SDS011;5580;50.106;8.702;2023-03-19T09:12:03;9.43;;;6.00;;
11054;SDS011;5580;50.106;8.702;2023-03-19T09:14:31;10.33;;;6.20;;
11054;SDS011;5580;50.106;8.702;2023-03-19T09:16:57;12.43;;;6.33;;
11054;SDS011;5580;50.106;8.702;2023-03-19T09:19:22;10.70;;;6.27;;
11054;SDS011;5580;50.106;8.702;2023-03-19T09:21:48;9.00;;;5.73;;
11054;SDS011;5580;50.106;8.702;2023-03-19T09:24:14;12.13;;;6.20;;
11054;SDS011;5580;50.106;8.702;2023-03-19T09:26:40;11.27;;;6.03;;
11054;SDS011;5580;50.106;8.702;2023-03-19T09:29:06;10.70;;;5.73;;
11054;SDS011;5580;50.106;8.702;2023-03-19T09:31:32;11.57;;;5.97;;
11054;SDS011;5580;50.106;8.702;2023-03-19T09:33:57;9.17;;;5.90;;
11054;SDS011;5580;50.106;8.702;2023-03-19T09:36:23;12.57;;;5.93;;
11054;SDS011;5580;50.106;8.702;2023-03-19T09:38:50;10.50;;;5.93;;
11054;SDS011;5580;50.106;8.702;2023-03-19T09:41:21;11.10;;;7.07;;
11054;SDS011;5580;50.106;8.702;2023-03-19T09:49:15;8.47;;;5.60;;
11054;SDS011;5580;50.106;8.702;2023-03-19T09:57:00;12.23;;;5.73;;
11054;SDS011;5580;50.106;8.702;2023-03-19T09:59:26;11.93;;;6.00;;
11054;SDS011;5580;50.106;8.702;2023-03-19T10:10:19;11.60;;;5.67;;
11054;SDS011;5580;50.106;8.702;2023-03-19T10:15:28;9.27;;;5.23;;
11054;SDS011;5580;50.106;8.702;2023-03-19T10:22:55;8.33;;;4.80;;
11054;SDS011;5580;50.106;8.702;2023-03-19T10:25:43;7.70;;;5.27;;
11054;SDS011;5580;50.106;8.702;2023-03-19T10:28:16;10.13;;;5.17;;
11054;SDS011;5580;50.106;8.702;2023-03-19T10:34:09;6.87;;;4.57;;
11054;SDS011;5580;50.106;8.702;2023-03-19T10:39:32;8.63;;;4.40;;
11054;SDS011;5580;50.106;8.702;2023-03-19T10:42:08;8.40;;;3.77;;
11054;SDS011;5580;50.106;8.702;2023-03-19T10:47:29;4.80;;;3.10;;
11054;SDS011;5580;50.106;8.702;2023-03-19T10:50:02;4.00;;;3.27;;
11054;SDS011;5580;50.106;8.702;2023-03-19T10:52:29;5.97;;;3.40;;
11054;SDS011;5580;50.106;8.702;2023-03-19T10:55:02;7.37;;;3.70;;
11054;SDS011;5580;50.106;8.702;2023-03-19T10:57:36;6.37;;;3.70;;
11054;SDS011;5580;50.106;8.702;2023-03-19T11:00:21;7.83;;;4.20;;
11054;SDS011;5580;50.106;8.702;2023-03-19T11:02:52;7.43;;;4.03;;
11054;SDS011;5580;50.106;8.702;2023-03-19T11:07:47;7.53;;;4.23;;
11054;SDS011;5580;50.106;8.702;2023-03-19T11:10:15;7.13;;;3.97;;
11054;SDS011;5580;50.106;8.702;2023-03-19T11:12:46;8.20;;;4.20;;
11054;SDS011;5580;50.106;8.702;2023-03-19T11:15:20;8.10;;;4.53;;
11054;SDS011;5580;50.106;8.702;2023-03-19T11:17:48;8.23;;;4.40;;
11054;SDS011;5580;50.106;8.702;2023-03-19T11:22:50;5.67;;;3.73;;
11054;SDS011;5580;50.106;8.702;2023-03-19T11:25:24;6.27;;;3.93;;
11054;SDS011;5580;50.106;8.702;2023-03-19T11:30:41;8.90;;;4.20;;
11054;SDS011;5580;50.106;8.702;2023-03-19T11:44:36;7.53;;;3.97;;
11054;SDS011;5580;50.106;8.702;2023-03-19T11:47:04;6.37;;;3.90;;
11054;SDS011;5580;50.106;8.702;2023-03-19T11:55:31;5.97;;;3.83;;
11054;SDS011;5580;50.106;8.702;2023-03-19T11:58:09;6.77;;;4.03;;
11054;SDS011;5580;50.106;8.702;2023-03-19T12:00:58;7.40;;;4.20;;
11054;SDS011;5580;50.106;8.702;2023-03-19T12:04:50;5.13;;;3.80;;
11054;SDS011;5580;50.106;8.702;2023-03-19T12:06:58;5.20;;;3.70;;
11054;SDS011;5580;50.106;8.702;2023-03-19T12:12:32;5.50;;;4.03;;
11054;SDS011;5580;50.106;8.702;2023-03-19T12:15:24;8.63;;;4.43;;
11054;SDS011;5580;50.106;8.702;2023-03-19T12:18:18;9.53;;;4.77;;
11054;SDS011;5580;50.106;8.702;2023-03-19T12:21:00;6.40;;;4.47;;
11054;SDS011;5580;50.106;8.702;2023-03-19T12:31:27;8.37;;;4.70;;
11054;SDS011;5580;50.106;8.702;2023-03-19T12:42:40;8.70;;;4.83;;
11054;SDS011;5580;50.106;8.702;2023-03-19T12:45:11;9.33;;;4.90;;
11054;SDS011;5580;50.106;8.702;2023-03-19T12:47:54;7.77;;;4.43;;
11054;SDS011;5580;50.106;8.702;2023-03-19T12:50:24;7.37;;;4.40;;
11054;SDS011;5580;50.106;8.702;2023-03-19T12:52:54;11.57;;;4.90;;
11054;SDS011;5580;50.106;8.702;2023-03-19T13:01:11;9.97;;;5.20;;
11054;SDS011;5580;50.106;8.702;2023-03-19T13:06:20;7.97;;;4.80;;
11054;SDS011;5580;50.106;8.702;2023-03-19T13:09:02;8.97;;;5.10;;
11054;SDS011;5580;50.106;8.702;2023-03-19T13:14:05;6.77;;;5.13;;
11054;SDS011;5580;50.106;8.702;2023-03-19T13:16:43;9.67;;;5.70;;
11054;SDS011;5580;50.106;8.702;2023-03-19T13:19:15;9.60;;;5.80;;
11054;SDS011;5580;50.106;8.702;2023-03-19T13:22:10;11.00;;;6.10;;
11054;SDS011;5580;50.106;8.702;2023-03-19T13:24:39;10.57;;;6.37;;
11054;SDS011;5580;50.106;8.702;2023-03-19T13:27:23;10.80;;;6.20;;
11054;SDS011;5580;50.106;8.702;2023-03-19T13:32:23;10.70;;;5.40;;
11054;SDS011;5580;50.106;8.702;2023-03-19T13:35:07;8.23;;;5.00;;
11054;SDS011;5580;50.106;8.702;2023-03-19T13:37:58;8.10;;;4.80;;
11054;SDS011;5580;50.106;8.702;2023-03-19T13:45:53;7.00;;;4.30;;
11054;SDS011;5580;50.106;8.702;2023-03-19T13:56:32;9.27;;;4.70;;
11054;SDS011;5580;50.106;8.702;2023-03-19T13:59:24;7.80;;;4.63;;
11054;SDS011;5580;50.106;8.702;2023-03-19T14:01:51;8.20;;;5.07;;
11054;SDS011;5580;50.106;8.702;2023-03-19T14:04:18;9.00;;;4.60;;
11054;SDS011;5580;50.106;8.702;2023-03-19T14:09:43;5.93;;;4.37;;
11054;SDS011;5580;50.106;8.702;2023-03-19T14:17:35;5.80;;;3.27;;
11054;SDS011;5580;50.106;8.702;2023-03-19T14:28:44;5.43;;;3.40;;
11054;SDS011;5580;50.106;8.702;2023-03-19T14:31:24;4.03;;;3.10;;
11054;SDS011;5580;50.106;8.702;2023-03-19T14:36:19;4.23;;;3.00;;
11054;SDS011;5580;50.106;8.702;2023-03-19T14:38:50;3.50;;;3.20;;
11054;SDS011;5580;50.106;8.702;2023-03-19T14:41:24;3.30;;;3.00;;
11054;SDS011;5580;50.106;8.702;2023-03-19T14:55:11;4.07;;;3.03;;
11054;SDS011;5580;50.106;8.702;2023-03-19T14:57:39;3.20;;;2.90;;
11054;SDS011;5580;50.106;8.702;2023-03-19T15:00:06;6.43;;;3.47;;
11054;SDS011;5580;50.106;8.702;2023-03-19T15:05:24;6.30;;;2.90;;
11054;SDS011;5580;50.106;8.702;2023-03-19T15:07:54;4.13;;;3.30;;
11054;SDS011;5580;50.106;8.702;2023-03-19T15:10:33;5.57;;;3.40;;
11054;SDS011;5580;50.106;8.702;2023-03-19T15:15:54;4.47;;;3.27;;
11054;SDS011;5580;50.106;8.702;2023-03-19T15:18:38;4.33;;;3.33;;
11054;SDS011;5580;50.106;8.702;2023-03-19T15:21:04;4.53;;;3.70;;
11054;SDS011;5580;50.106;8.702;2023-03-19T15:23:30;6.37;;;3.53;;
11054;SDS011;5580;50.106;8.702;2023-03-19T15:26:01;5.47;;;3.37;;
11054;SDS011;5580;50.106;8.702;2023-03-19T15:28:28;4.60;;;3.10;;
11054;SDS011;5580;50.106;8.702;2023-03-19T15:30:57;5.13;;;3.37;;
11054;SDS011;5580;50.106;8.702;2023-03-19T15:33:34;3.60;;;3.30;;
11054;SDS011;5580;50.106;8.702;2023-03-19T15:36:03;5.53;;;3.17;;
11054;SDS011;5580;50.106;8.702;2023-03-19T15:38:32;5.03;;;3.30;;
11054;SDS011;5580;50.106;8.702;2023-03-19T15:41:07;4.90;;;3.43;;
11054;SDS011;5580;50.106;8.702;2023-03-19T15:43:35;6.93;;;3.23;;
11054;SDS011;5580;50.106;8.702;2023-03-19T15:46:03;4.07;;;2.87;;
11054;SDS011;5580;50.106;8.702;2023-03-19T15:48:47;4.13;;;2.97;;
11054;SDS011;5580;50.106;8.702;2023-03-19T15:51:35;3.20;;;2.70;;
11054;SDS011;5580;50.106;8.702;2023-03-19T15:54:02;3.13;;;2.83;;
11054;SDS011;5580;50.106;8.702;2023-03-19T15:56:29;3.80;;;3.00;;
11054;SDS011;5580;50.106;8.702;2023-03-19T15:58:56;6.23;;;3.07;;
11054;SDS011;5580;50.106;8.702;2023-03-19T16:01:22;3.33;;;2.80;;
11054;SDS011;5580;50.106;8.702;2023-03-19T16:06:35;3.27;;;2.80;;
11054;SDS011;5580;50.106;8.702;2023-03-19T16:11:40;6.30;;;3.30;;
11054;SDS011;5580;50.106;8.702;2023-03-19T16:16:44;3.00;;;2.70;;
11054;SDS011;5580;50.106;8.702;2023-03-19T16:19:28;2.27;;;2.07;;
11054;SDS011;5580;50.106;8.702;2023-03-19T16:21:55;2.60;;;2.40;;
11054;SDS011;5580;50.106;8.702;2023-03-19T16:24:31;5.47;;;3.17;;
11054;SDS011;5580;50.106;8.702;2023-03-19T16:27:05;3.30;;;3.00;;
11054;SDS011;5580;50.106;8.702;2023-03-19T16:29:45;5.57;;;3.13;;
11054;SDS011;5580;50.106;8.702;2023-03-19T16:32:17;3.67;;;2.70;;
11054;SDS011;5580;50.106;8.702;2023-03-19T16:34:44;4.63;;;2.87;;
11054;SDS011;5580;50.106;8.702;2023-03-19T16:47:41;3.63;;;3.00;;
11054;SDS011;5580;50.106;8.702;2023-03-19T16:50:08;3.10;;;2.63;;
11054;SDS011;5580;50.106;8.702;2023-03-19T16:52:34;5.53;;;2.63;;
11054;SDS011;5580;50.106;8.702;2023-03-19T16:55:02;3.13;;;2.57;;
11054;SDS011;5580;50.106;8.702;2023-03-19T16:57:29;2.47;;;2.23;;
11054;SDS011;5580;50.106;8.702;2023-03-19T16:59:55;5.57;;;2.83;;
11054;SDS011;5580;50.106;8.702;2023-03-19T17:02:22;3.13;;;2.83;;
11054;SDS011;5580;50.106;8.702;2023-03-19T17:04:48;4.13;;;2.90;;
11054;SDS011;5580;50.106;8.702;2023-03-19T17:07:13;3.43;;;3.10;;
11054;SDS011;5580;50.106;8.702;2023-03-19T17:09:39;4.27;;;3.47;;
11054;SDS011;5580;50.106;8.702;2023-03-19T17:12:05;3.57;;;3.10;;
11054;SDS011;5580;50.106;8.702;2023-03-19T17:14:37;3.37;;;2.97;;
11054;SDS011;5580;50.106;8.702;2023-03-19T17:17:02;3.57;;;2.80;;
11054;SDS011;5580;50.106;8.702;2023-03-19T17:19:33;6.80;;;3.00;;
11054;SDS011;5580;50.106;8.702;2023-03-19T17:22:00;3.70;;;3.30;;
11054;SDS011;5580;50.106;8.702;2023-03-19T17:26:56;5.47;;;3.23;;
11054;SDS011;5580;50.106;8.702;2023-03-19T17:29:24;3.60;;;3.30;;
11054;SDS011;5580;50.106;8.702;2023-03-19T17:31:51;4.33;;;3.23;;
11054;SDS011;5580;50.106;8.702;2023-03-19T17:34:19;4.50;;;3.50;;
11054;SDS011;5580;50.106;8.702;2023-03-19T17:36:51;5.33;;;3.20;;
11054;SDS011;5580;50.106;8.702;2023-03-19T17:39:21;6.27;;;3.90;;
11054;SDS011;5580;50.106;8.702;2023-03-19T17:41:48;5.47;;;3.50;;
11054;SDS011;5580;50.106;8.702;2023-03-19T17:44:14;6.87;;;3.80;;